createdAt,value
2019-04-21T00:01:18.267Z,9.54
2019-04-21T00:03:52.205Z,9.49
2019-04-21T00:06:36.935Z,9.41
2019-04-21T00:09:11.478Z,9.45
2019-04-21T00:14:03.755Z,9.58
2019-04-21T00:16:24.665Z,9.66
2019-04-21T00:18:59.156Z,9.66
2019-04-21T00:21:29.174Z,9.62
2019-04-21T00:24:23.017Z,9.67
2019-04-21T00:26:59.045Z,9.70
2019-04-21T00:29:35.406Z,9.69
2019-04-21T00:31:56.639Z,9.68
2019-04-21T00:34:13.312Z,9.68
2019-04-21T00:36:53.663Z,9.75
2019-04-21T00:39:43.655Z,9.82
2019-04-21T00:41:59.594Z,9.87
2019-04-21T00:44:26.190Z,9.85
2019-04-21T00:47:00.695Z,9.87
2019-04-21T00:49:28.237Z,9.84
2019-04-21T00:52:26.408Z,9.76
2019-04-21T00:54:58.594Z,9.71
2019-04-21T00:57:26.573Z,9.68
2019-04-21T00:59:56.537Z,9.73
2019-04-21T01:02:19.923Z,9.76
2019-04-21T01:04:49.535Z,9.81
2019-04-21T01:07:19.385Z,9.89
2019-04-21T01:09:45.321Z,10.02
2019-04-21T01:12:19.513Z,10.16
2019-04-21T01:14:58.166Z,10.16
2019-04-21T01:17:21.848Z,10.24
2019-04-21T01:19:43.893Z,10.24
2019-04-21T01:21:59.259Z,10.09
2019-04-21T01:24:33.022Z,10.09
2019-04-21T01:27:06.741Z,10.05
2019-04-21T01:29:51.293Z,9.95
2019-04-21T01:32:39.012Z,9.92
2019-04-21T01:34:45.375Z,9.86
2019-04-21T01:37:12.792Z,9.73
2019-04-21T01:39:53.280Z,9.67
2019-04-21T01:42:18.346Z,9.66
2019-04-21T01:44:49.998Z,9.75
2019-04-21T01:47:17.361Z,9.78
2019-04-21T01:49:41.477Z,9.72
2019-04-21T01:52:24.705Z,9.73
2019-04-21T01:55:04.876Z,9.75
2019-04-21T01:57:26.296Z,9.75
2019-04-21T01:59:54.254Z,9.80
2019-04-21T02:02:29.397Z,9.73
2019-04-21T02:05:06.983Z,9.68
2019-04-21T02:07:33.940Z,9.61
2019-04-21T02:10:04.816Z,9.59
2019-04-21T02:12:34.539Z,9.54
2019-04-21T02:15:04.891Z,9.55
2019-04-21T02:17:27.962Z,9.55
2019-04-21T02:19:56.156Z,9.50
2019-04-21T02:22:46.172Z,9.43
2019-04-21T02:25:08.635Z,9.47
2019-04-21T02:27:36.291Z,9.44
2019-04-21T02:30:10.673Z,9.44
2019-04-21T02:32:48.219Z,9.39
2019-04-21T02:35:20.797Z,9.34
2019-04-21T02:38:01.236Z,9.28
2019-04-21T02:40:19.061Z,9.17
2019-04-21T02:42:46.348Z,8.94
2019-04-21T02:45:11.367Z,8.99
2019-04-21T02:50:22.324Z,8.86
2019-04-21T02:52:43.460Z,8.74
2019-04-21T02:57:51.348Z,8.64
2019-04-21T03:00:26.171Z,8.68
2019-04-21T03:02:54.490Z,8.67
2019-04-21T03:05:36.406Z,8.62
2019-04-21T03:10:49.974Z,8.45
2019-04-21T03:15:39.986Z,8.38
2019-04-21T03:18:24.256Z,8.39
2019-04-21T03:25:49.753Z,8.31
2019-04-21T03:28:14.111Z,8.25
2019-04-21T03:38:16.799Z,8.10
2019-04-21T03:43:16.279Z,8.00
2019-04-21T03:45:49.295Z,8.00
2019-04-21T03:48:09.299Z,7.94
2019-04-21T03:50:44.089Z,7.91
2019-04-21T03:53:09.291Z,7.83
2019-04-21T03:58:35.145Z,7.82
2019-04-21T04:08:55.260Z,7.65
2019-04-21T04:11:23.421Z,7.57
2019-04-21T04:14:01.973Z,7.55
2019-04-21T04:16:16.982Z,7.55
2019-04-21T04:21:19.893Z,7.44
2019-04-21T04:26:17.002Z,7.39
2019-04-21T04:29:04.329Z,7.41
2019-04-21T04:31:25.829Z,7.41
2019-04-21T04:33:57.775Z,7.35
2019-04-21T04:36:24.370Z,7.28
2019-04-21T04:39:18.019Z,7.22
2019-04-21T04:44:12.849Z,7.42
2019-04-21T04:46:55.761Z,7.35
2019-04-21T04:49:11.159Z,7.31
2019-04-21T04:51:48.284Z,7.31
2019-04-21T04:54:17.103Z,7.37
2019-04-21T04:56:38.757Z,7.42
2019-04-21T04:59:24.543Z,7.45
2019-04-21T05:04:45.508Z,7.58
2019-04-21T05:07:07.070Z,7.51
2019-04-21T05:09:41.244Z,7.53
2019-04-21T05:12:05.862Z,7.54
2019-04-21T05:14:39.022Z,7.58
2019-04-21T05:17:14.263Z,7.57
2019-04-21T05:19:41.459Z,7.64
2019-04-21T05:22:14.228Z,7.64
2019-04-21T05:24:28.973Z,7.78
2019-04-21T05:26:59.533Z,7.90
2019-04-21T05:29:56.873Z,8.05
2019-04-21T05:32:27.006Z,8.12
2019-04-21T05:34:57.037Z,8.23
2019-04-21T05:37:43.438Z,8.29
2019-04-21T05:40:10.613Z,8.24
2019-04-21T05:42:42.489Z,8.24
2019-04-21T05:45:26.942Z,8.30
2019-04-21T05:48:10.054Z,8.36
2019-04-21T05:50:27.956Z,8.41
2019-04-21T05:52:53.573Z,8.46
2019-04-21T05:55:42.679Z,8.58
2019-04-21T05:58:04.193Z,8.66
2019-04-21T06:03:07.887Z,9.27
2019-04-21T06:08:09.752Z,9.96
2019-04-21T06:10:44.626Z,10.27
2019-04-21T06:13:13.376Z,10.60
2019-04-21T06:15:47.266Z,10.93
2019-04-21T06:18:13.243Z,11.24
2019-04-21T06:20:40.658Z,11.53
2019-04-21T06:23:14.798Z,11.79
2019-04-21T06:25:50.020Z,12.35
2019-04-21T06:28:13.762Z,12.35
2019-04-21T06:30:56.201Z,12.66
2019-04-21T06:33:04.919Z,12.88
2019-04-21T06:36:21.580Z,13.14
2019-04-21T06:38:33.825Z,13.48
2019-04-21T06:40:56.398Z,13.75
2019-04-21T06:43:44.792Z,14.10
2019-04-21T06:45:54.004Z,14.45
2019-04-21T06:48:28.473Z,14.77
2019-04-21T06:51:03.164Z,15.08
2019-04-21T06:53:29.666Z,15.39
2019-04-21T06:55:51.853Z,15.70
2019-04-21T06:58:26.315Z,16.02
2019-04-21T07:00:50.916Z,16.26
2019-04-21T07:03:26.861Z,16.60
2019-04-21T07:05:57.626Z,16.88
2019-04-21T07:08:44.702Z,17.19
2019-04-21T07:10:59.111Z,17.49
2019-04-21T07:13:22.434Z,17.73
2019-04-21T07:15:57.985Z,17.97
2019-04-21T07:18:30.037Z,18.38
2019-04-21T07:20:54.977Z,18.74
2019-04-21T07:23:31.964Z,19.05
2019-04-21T07:25:57.876Z,19.36
2019-04-21T07:28:25.292Z,19.73
2019-04-21T07:30:59.579Z,20.00
2019-04-21T07:33:49.257Z,19.99
2019-04-21T07:35:55.462Z,19.88
2019-04-21T07:38:27.221Z,20.21
2019-04-21T07:40:53.907Z,20.50
2019-04-21T07:43:21.940Z,20.85
2019-04-21T07:45:51.579Z,21.13
2019-04-21T07:48:26.312Z,21.33
2019-04-21T07:51:11.203Z,21.52
2019-04-21T07:53:59.633Z,21.73
2019-04-21T07:56:07.341Z,21.80
2019-04-21T07:58:53.812Z,21.76
2019-04-21T08:01:27.431Z,21.71
2019-04-21T08:03:54.397Z,21.70
2019-04-21T08:06:25.348Z,21.99
2019-04-21T08:08:46.717Z,22.33
2019-04-21T08:11:20.994Z,22.41
2019-04-21T08:13:53.574Z,22.69
2019-04-21T08:16:24.444Z,22.96
2019-04-21T08:18:54.887Z,23.25
2019-04-21T08:21:24.679Z,23.58
2019-04-21T08:23:48.544Z,23.87
2019-04-21T08:26:26.179Z,24.02
2019-04-21T08:28:58.881Z,24.28
2019-04-21T08:31:25.158Z,24.27
2019-04-21T08:33:55.401Z,24.57
2019-04-21T08:36:24.597Z,24.61
2019-04-21T08:38:54.447Z,24.79
2019-04-21T08:41:18.626Z,25.17
2019-04-21T08:43:54.604Z,25.37
2019-04-21T08:46:27.280Z,25.76
2019-04-21T08:48:56.669Z,26.10
2019-04-21T08:51:39.476Z,26.27
2019-04-21T08:54:07.679Z,26.35
2019-04-21T08:56:32.004Z,26.24
2019-04-21T08:59:21.869Z,26.57
2019-04-21T09:01:50.090Z,26.50
2019-04-21T09:04:24.481Z,26.60
2019-04-21T09:09:27.855Z,26.45
2019-04-21T09:11:54.103Z,26.71
2019-04-21T09:14:24.257Z,26.34
2019-04-21T09:16:47.604Z,26.11
2019-04-21T09:19:34.060Z,26.08
2019-04-21T09:24:22.254Z,26.59
2019-04-21T09:26:51.394Z,26.96
2019-04-21T09:29:10.929Z,26.87
2019-04-21T09:31:39.170Z,27.33
2019-04-21T09:34:06.629Z,27.62
2019-04-21T09:36:42.727Z,27.68
2019-04-21T09:39:14.141Z,27.85
2019-04-21T09:41:39.399Z,26.89
2019-04-21T09:44:15.080Z,27.29
2019-04-21T09:46:45.323Z,27.87
2019-04-21T09:49:12.560Z,28.19
2019-04-21T09:51:39.628Z,28.37
2019-04-21T09:54:12.614Z,28.65
2019-04-21T09:56:46.309Z,28.77
2019-04-21T09:59:17.992Z,28.73
2019-04-21T10:01:52.911Z,28.93
2019-04-21T10:04:09.884Z,29.37
2019-04-21T10:06:39.530Z,29.42
2019-04-21T10:09:13.951Z,29.69
2019-04-21T10:11:41.477Z,29.65
2019-04-21T10:14:10.221Z,29.77
2019-04-21T10:16:53.944Z,29.59
2019-04-21T10:19:23.332Z,29.64
2019-04-21T10:21:52.140Z,29.15
2019-04-21T10:24:20.649Z,29.35
2019-04-21T10:26:49.395Z,29.34
2019-04-21T10:29:24.311Z,29.42
2019-04-21T10:31:48.145Z,29.46
2019-04-21T10:34:17.048Z,29.73
2019-04-21T10:36:46.962Z,30.15
2019-04-21T10:39:15.797Z,30.12
2019-04-21T10:41:45.691Z,29.83
2019-04-21T10:44:14.196Z,29.70
2019-04-21T10:46:45.347Z,29.31
2019-04-21T10:49:12.915Z,29.53
2019-04-21T10:51:41.660Z,29.75
2019-04-21T10:54:11.438Z,30.07
2019-04-21T10:56:43.425Z,30.01
2019-04-21T10:59:10.413Z,29.78
2019-04-21T11:01:39.056Z,29.65
2019-04-21T11:04:17.210Z,29.37
2019-04-21T11:06:39.163Z,28.74
2019-04-21T11:09:10.753Z,29.48
2019-04-21T11:11:39.783Z,29.13
2019-04-21T11:14:08.660Z,29.40
2019-04-21T11:16:37.342Z,29.43
2019-04-21T11:19:06.377Z,29.29
2019-04-21T11:21:34.920Z,28.54
2019-04-21T11:24:03.923Z,28.74
2019-04-21T11:26:33.703Z,29.25
2019-04-21T11:29:03.138Z,29.48
2019-04-21T11:31:31.655Z,29.51
2019-04-21T11:34:00.876Z,30.16
2019-04-21T11:36:29.477Z,29.89
2019-04-21T11:39:16.894Z,30.14
2019-04-21T11:41:32.363Z,30.03
2019-04-21T11:44:01.427Z,30.16
2019-04-21T11:46:30.772Z,30.36
2019-04-21T11:49:00.044Z,30.35
2019-04-21T11:51:28.969Z,30.12
2019-04-21T11:53:59.070Z,30.10
2019-04-21T11:56:27.968Z,30.42
2019-04-21T11:58:57.827Z,30.62
2019-04-21T12:01:27.539Z,30.64
2019-04-21T12:03:56.214Z,30.71
2019-04-21T12:06:32.338Z,31.02
2019-04-21T12:08:57.661Z,30.90
2019-04-21T12:11:25.274Z,30.78
2019-04-21T12:13:54.245Z,30.80
2019-04-21T12:16:23.341Z,31.09
2019-04-21T12:18:52.435Z,30.83
2019-04-21T12:21:21.240Z,30.80
2019-04-21T12:23:50.277Z,30.48
2019-04-21T12:26:19.938Z,30.52
2019-04-21T12:28:50.039Z,30.45
2019-04-21T12:31:36.447Z,30.44
2019-04-21T12:34:07.773Z,30.25
2019-04-21T12:36:36.338Z,30.02
2019-04-21T12:39:08.412Z,30.23
2019-04-21T12:41:36.499Z,30.72
2019-04-21T12:44:05.071Z,30.66
2019-04-21T12:46:33.941Z,30.41
2019-04-21T12:49:02.421Z,30.65
2019-04-21T12:51:30.922Z,30.84
2019-04-21T12:53:59.626Z,30.71
2019-04-21T12:56:29.403Z,30.50
2019-04-21T12:58:57.909Z,30.50
2019-04-21T13:01:27.394Z,30.25
2019-04-21T13:03:56.022Z,30.41
2019-04-21T13:06:25.503Z,30.34
2019-04-21T13:09:02.999Z,30.19
2019-04-21T13:11:25.409Z,30.15
2019-04-21T13:13:53.936Z,30.24
2019-04-21T13:16:23.366Z,30.11
2019-04-21T13:18:53.343Z,30.02
2019-04-21T13:21:22.419Z,29.91
2019-04-21T13:23:50.949Z,29.91
2019-04-21T13:26:29.596Z,30.07
2019-04-21T13:28:50.084Z,30.30
2019-04-21T13:31:18.629Z,30.30
2019-04-21T13:33:48.113Z,30.60
2019-04-21T13:36:17.992Z,30.68
2019-04-21T13:39:26.257Z,30.24
2019-04-21T13:41:41.660Z,30.09
2019-04-21T13:44:13.957Z,30.24
2019-04-21T13:46:45.114Z,29.77
2019-04-21T13:49:13.974Z,30.15
2019-04-21T13:51:43.971Z,29.94
2019-04-21T13:54:13.860Z,29.70
2019-04-21T13:56:42.635Z,29.41
2019-04-21T13:59:11.107Z,29.17
2019-04-21T14:01:39.724Z,29.19
2019-04-21T14:04:09.396Z,29.37
2019-04-21T14:06:38.437Z,29.27
2019-04-21T14:09:11.408Z,29.11
2019-04-21T14:11:41.125Z,29.40
2019-04-21T14:14:10.368Z,29.23
2019-04-21T14:16:40.141Z,29.55
2019-04-21T14:19:09.711Z,29.39
2019-04-21T14:21:39.116Z,29.35
2019-04-21T14:24:08.907Z,29.20
2019-04-21T14:26:38.562Z,29.12
2019-04-21T14:29:08.254Z,29.09
2019-04-21T14:31:38.123Z,28.99
2019-04-21T14:34:07.936Z,29.17
2019-04-21T14:36:37.060Z,29.42
2019-04-21T14:39:08.547Z,29.44
2019-04-21T14:41:38.031Z,29.42
2019-04-21T14:44:06.980Z,29.38
2019-04-21T14:46:37.427Z,29.15
2019-04-21T14:49:21.282Z,29.02
2019-04-21T14:51:52.677Z,28.99
2019-04-21T14:54:23.146Z,28.49
2019-04-21T14:56:51.680Z,28.16
2019-04-21T14:59:21.378Z,28.24
2019-04-21T15:01:49.982Z,28.55
2019-04-21T15:04:19.375Z,28.38
2019-04-21T15:06:49.558Z,28.45
2019-04-21T15:09:18.897Z,28.46
2019-04-21T15:11:47.807Z,28.53
2019-04-21T15:14:17.754Z,28.50
2019-04-21T15:16:47.074Z,28.55
2019-04-21T15:19:16.847Z,28.66
2019-04-21T15:21:45.331Z,28.77
2019-04-21T15:24:14.236Z,28.83
2019-04-21T15:26:44.325Z,28.79
2019-04-21T15:29:12.955Z,28.58
2019-04-21T15:31:44.597Z,28.35
2019-04-21T15:34:13.002Z,28.30
2019-04-21T15:36:41.915Z,28.17
2019-04-21T15:39:11.755Z,28.19
2019-04-21T15:41:40.819Z,28.18
2019-04-21T15:44:09.895Z,27.99
2019-04-21T15:46:39.784Z,27.78
2019-04-21T15:49:09.191Z,27.84
2019-04-21T15:51:38.021Z,27.90
2019-04-21T15:54:07.007Z,27.85
2019-04-21T15:56:46.972Z,27.71
2019-04-21T15:59:17.058Z,27.64
2019-04-21T16:01:48.355Z,27.55
2019-04-21T16:04:17.209Z,27.59
2019-04-21T16:06:47.790Z,27.41
2019-04-21T16:09:21.105Z,27.38
2019-04-21T16:11:46.438Z,27.32
2019-04-21T16:14:14.837Z,27.18
2019-04-21T16:16:43.344Z,27.04
2019-04-21T16:19:12.306Z,26.93
2019-04-21T16:21:44.300Z,26.81
2019-04-21T16:24:12.235Z,26.69
2019-04-21T16:26:42.559Z,26.56
2019-04-21T16:29:11.395Z,26.53
2019-04-21T16:31:40.379Z,26.44
2019-04-21T16:34:09.303Z,26.46
2019-04-21T16:36:38.073Z,26.30
2019-04-21T16:39:07.557Z,26.25
2019-04-21T16:41:36.185Z,26.28
2019-04-21T16:44:05.120Z,26.22
2019-04-21T16:46:33.682Z,26.20
2019-04-21T16:49:02.232Z,26.10
2019-04-21T16:51:31.855Z,25.97
2019-04-21T16:54:02.102Z,25.84
2019-04-21T16:56:33.262Z,25.83
2019-04-21T16:59:03.382Z,25.72
2019-04-21T17:01:32.508Z,25.70
2019-04-21T17:04:02.413Z,25.61
2019-04-21T17:06:31.241Z,25.60
2019-04-21T17:09:00.992Z,25.46
2019-04-21T17:11:34.699Z,25.43
2019-04-21T17:14:00.541Z,25.41
2019-04-21T17:16:58.362Z,25.29
2019-04-21T17:19:10.800Z,25.20
2019-04-21T17:21:30.166Z,25.08
2019-04-21T17:23:59.018Z,24.95
2019-04-21T17:26:28.893Z,24.81
2019-04-21T17:28:58.734Z,24.70
2019-04-21T17:31:28.585Z,24.64
2019-04-21T17:34:02.231Z,24.54
2019-04-21T17:36:27.384Z,24.45
2019-04-21T17:38:55.891Z,24.40
2019-04-21T17:41:31.832Z,24.28
2019-04-21T17:43:56.049Z,24.15
2019-04-21T17:46:33.531Z,23.97
2019-04-21T17:48:55.284Z,23.86
2019-04-21T17:51:25.702Z,23.69
2019-04-21T17:54:03.177Z,23.58
2019-04-21T17:57:00.183Z,23.44
2019-04-21T17:59:28.014Z,23.28
2019-04-21T18:01:56.409Z,23.16
2019-04-21T18:04:25.919Z,23.01
2019-04-21T18:07:02.399Z,22.88
2019-04-21T18:09:47.061Z,22.73
2019-04-21T18:12:09.153Z,22.60
2019-04-21T18:14:21.889Z,22.45
2019-04-21T18:16:51.573Z,22.27
2019-04-21T18:19:26.007Z,22.10
2019-04-21T18:22:08.540Z,21.95
2019-04-21T18:24:47.640Z,21.74
2019-04-21T18:27:11.040Z,21.57
2019-04-21T18:29:40.093Z,21.45
2019-04-21T18:32:08.539Z,21.31
2019-04-21T18:34:52.377Z,21.11
2019-04-21T18:37:14.204Z,20.94
2019-04-21T18:40:01.650Z,20.73
2019-04-21T18:43:04.477Z,20.57
2019-04-21T18:45:48.988Z,20.34
2019-04-21T18:48:18.369Z,20.16
2019-04-21T18:50:58.901Z,20.04
2019-04-21T18:53:40.982Z,19.86
2019-04-21T18:56:00.354Z,19.74
2019-04-21T18:58:24.375Z,19.59
2019-04-21T19:00:58.310Z,19.50
2019-04-21T19:03:30.677Z,19.39
2019-04-21T19:06:01.707Z,19.23
2019-04-21T19:08:46.952Z,19.14
2019-04-21T19:11:13.491Z,19.03
2019-04-21T19:14:15.812Z,18.95
2019-04-21T19:16:38.736Z,18.81
2019-04-21T19:19:22.816Z,18.69
2019-04-21T19:21:24.479Z,18.55
2019-04-21T19:24:16.265Z,18.46
2019-04-21T19:26:37.728Z,18.30
2019-04-21T19:29:01.505Z,18.20
2019-04-21T19:31:34.982Z,18.16
2019-04-21T19:33:51.614Z,18.05
2019-04-21T19:36:15.104Z,18.00
2019-04-21T19:38:55.911Z,17.91
2019-04-21T19:41:28.071Z,17.78
2019-04-21T19:44:02.519Z,17.68
2019-04-21T19:46:33.143Z,17.58
2019-04-21T19:49:13.409Z,17.41
2019-04-21T19:51:26.221Z,17.17
2019-04-21T19:53:56.338Z,16.89
2019-04-21T19:56:16.165Z,16.69
2019-04-21T19:58:47.354Z,16.60
2019-04-21T20:04:24.185Z,16.39
2019-04-21T20:07:01.874Z,16.11
2019-04-21T20:09:37.199Z,15.91
2019-04-21T20:12:06.632Z,15.83
2019-04-21T20:17:06.607Z,15.54
2019-04-21T20:19:22.964Z,15.49
2019-04-21T20:21:53.373Z,15.39
2019-04-21T20:24:26.593Z,15.41
2019-04-21T20:27:04.733Z,15.45
2019-04-21T20:29:44.558Z,15.28
2019-04-21T20:32:16.351Z,15.18
2019-04-21T20:34:41.443Z,14.94
2019-04-21T20:37:09.297Z,14.74
2019-04-21T20:39:27.024Z,14.73
2019-04-21T20:42:08.623Z,14.77
2019-04-21T20:44:40.213Z,14.82
2019-04-21T20:47:07.418Z,14.83
2019-04-21T20:49:34.123Z,14.86
2019-04-21T20:52:18.942Z,14.73
2019-04-21T20:54:40.992Z,14.60
2019-04-21T20:57:11.521Z,14.53
2019-04-21T20:59:37.512Z,14.31
2019-04-21T21:02:10.215Z,14.17
2019-04-21T21:04:36.870Z,13.69
2019-04-21T21:07:25.556Z,13.75
2019-04-21T21:09:41.490Z,13.66
2019-04-21T21:12:25.747Z,13.59
2019-04-21T21:14:36.424Z,13.63
2019-04-21T21:17:25.386Z,13.66
2019-04-21T21:19:48.709Z,13.58
2019-04-21T21:22:06.047Z,13.51
2019-04-21T21:25:00.246Z,13.40
2019-04-21T21:27:12.950Z,13.38
2019-04-21T21:29:45.163Z,13.27
2019-04-21T21:34:45.400Z,13.20
2019-04-21T21:37:21.871Z,13.04
2019-04-21T21:39:54.402Z,13.01
2019-04-21T21:42:02.139Z,12.86
2019-04-21T21:44:28.726Z,12.81
2019-04-21T21:47:05.326Z,12.72
2019-04-21T21:49:43.971Z,12.63
2019-04-21T21:52:06.698Z,12.72
2019-04-21T21:54:27.709Z,12.72
2019-04-21T21:56:58.664Z,12.83
2019-04-21T21:59:31.080Z,12.86
2019-04-21T22:01:58.319Z,12.87
2019-04-21T22:04:30.733Z,12.78
2019-04-21T22:07:04.843Z,12.54
2019-04-21T22:09:28.337Z,12.51
2019-04-21T22:12:00.850Z,12.43
2019-04-21T22:14:36.437Z,12.35
2019-04-21T22:17:10.940Z,12.26
2019-04-21T22:19:51.212Z,12.15
2019-04-21T22:22:13.948Z,12.09
2019-04-21T22:24:41.439Z,12.04
2019-04-21T22:26:58.942Z,12.05
2019-04-21T22:29:34.993Z,12.05
2019-04-21T22:32:05.041Z,12.03
2019-04-21T22:34:35.759Z,11.96
2019-04-21T22:37:16.130Z,11.94
2019-04-21T22:39:44.967Z,11.84
2019-04-21T22:42:05.525Z,11.72
2019-04-21T22:44:28.357Z,11.68
2019-04-21T22:47:04.970Z,11.60
2019-04-21T22:49:26.879Z,11.63
2019-04-21T22:51:55.715Z,11.51
2019-04-21T22:54:30.146Z,11.24
2019-04-21T22:57:02.583Z,11.24
2019-04-21T22:59:27.840Z,11.09
2019-04-21T23:01:55.830Z,11.09
2019-04-21T23:04:32.965Z,11.18
2019-04-21T23:06:59.903Z,11.10
2019-04-21T23:09:26.669Z,11.04
2019-04-21T23:11:59.327Z,11.04
2019-04-21T23:14:27.973Z,11.01
2019-04-21T23:17:14.914Z,10.97
2019-04-21T23:19:38.858Z,10.87
2019-04-21T23:22:17.310Z,10.84
2019-04-21T23:24:54.582Z,10.84
2019-04-21T23:27:11.645Z,10.84
2019-04-21T23:29:55.769Z,10.85
2019-04-21T23:32:13.136Z,10.77
2019-04-21T23:34:32.506Z,10.73
2019-04-21T23:37:06.766Z,10.71
2019-04-21T23:39:32.027Z,10.60
2019-04-21T23:42:00.887Z,10.53
2019-04-21T23:44:28.268Z,10.40
2019-04-21T23:47:01.445Z,10.41
2019-04-21T23:49:40.493Z,10.41
2019-04-21T23:52:02.976Z,10.33
2019-04-21T23:54:27.488Z,10.24
2019-04-21T23:56:55.971Z,10.10
2019-04-21T23:59:24.819Z,10.01
